Time,TemperatureF,DewpointF,PressureIn,WindDirection,WindDirectionDegrees,WindSpeedMPH,WindSpeedGustMPH,Humidity,HourlyPrecipIn,Conditions,Clouds,dailyrainin,SoftwareType,DateUTC
2013-07-31 00:00:00,61.5,52.8,29.77,WNW,283,5.0,11.0,73,0.00,RA,RA,0.00,WeatherDisplay:10.37,2013-07-30 23:00:00,
2013-07-31 00:10:00,61.3,52.6,29.77,West,259,6.0,10.0,73,0.00,CLR,CLR,0.00,WeatherDisplay:10.37,2013-07-30 23:10:00,
2013-07-31 00:20:00,61.3,52.6,29.77,West,277,5.0,9.0,73,0.00,CLR,CLR,0.00,WeatherDisplay:10.37,2013-07-30 23:20:00,
2013-07-31 00:30:00,61.2,52.8,29.76,West,274,5.0,8.0,74,0.00,CLR,CLR,0.00,WeatherDisplay:10.37,2013-07-30 23:30:00,
2013-07-31 00:40:00,61.3,53.0,29.77,West,268,5.0,8.0,74,0.00,CLR,CLR,0.00,WeatherDisplay:10.37,2013-07-30 23:40:00,
2013-07-31 00:50:00,61.3,53.0,29.76,WSW,247,6.0,7.0,74,0.00,CLR,CLR,0.00,WeatherDisplay:10.37,2013-07-30 23:50:00,
2013-07-31 01:00:00,61.2,53.2,29.76,WNW,282,3.0,8.0,75,0.00,CLR,CLR,0.00,WeatherDisplay:10.37,2013-07-31 00:00:00,
2013-07-31 01:10:00,60.8,52.8,29.76,North,355,1.0,5.0,75,0.00,CLR,CLR,0.00,WeatherDisplay:10.37,2013-07-31 00:10:00,
2013-07-31 01:20:00,60.6,52.6,29.76,North,7,1.0,4.0,75,0.00,CLR,CLR,0.00,WeatherDisplay:10.37,2013-07-31 00:20:00,
2013-07-31 01:30:00,60.4,52.5,29.77,NE,55,0.0,2.0,75,0.00,CLR,CLR,0.00,WeatherDisplay:10.37,2013-07-31 00:30:00,
2013-07-31 01:40:00,60.1,53.2,29.76,SE,130,0.0,4.0,78,0.00,CLR,CLR,0.00,WeatherDisplay:10.37,2013-07-31 00:40:00,
2013-07-31 01:50:00,59.5,53.4,29.76,East,83,2.0,4.0,80,0.00,CLR,CLR,0.00,WeatherDisplay:10.37,2013-07-31 00:50:00,
2013-07-31 02:00:00,59.0,53.2,29.76,ESE,123,2.0,4.0,81,0.00,CLR,CLR,0.00,WeatherDisplay:10.37,2013-07-31 01:00:00,
2013-07-31 02:10:00,58.8,53.3,29.76,SE,135,1.0,4.0,82,0.00,CLR,CLR,0.00,WeatherDisplay:10.37,2013-07-31 01:10:00,
2013-07-31 02:20:00,58.1,53.0,29.75,ESE,113,2.0,6.0,83,0.00,CLR,CLR,0.00,WeatherDisplay:10.37,2013-07-31 01:20:00,
2013-07-31 02:30:00,57.4,52.9,29.76,SE,127,2.0,6.0,85,0.00,CLR,CLR,0.00,WeatherDisplay:10.37,2013-07-31 01:30:00,
2013-07-31 02:40:00,57.2,53.0,29.75,ESE,122,2.0,4.0,86,0.00,CLR,CLR,0.00,WeatherDisplay:10.37,2013-07-31 01:40:00,
2013-07-31 02:50:00,57.0,53.2,29.75,ESE,113,2.0,5.0,87,0.00,CLR,CLR,0.00,WeatherDisplay:10.37,2013-07-31 01:50:00,
2013-07-31 03:00:00,56.8,53.0,29.75,ESE,108,2.0,6.0,87,0.00,CLR,CLR,0.00,WeatherDisplay:10.37,2013-07-31 02:00:00,
2013-07-31 03:10:00,56.8,53.3,29.75,SE,132,2.0,5.0,88,0.00,CLR,CLR,0.00,WeatherDisplay:10.37,2013-07-31 02:10:00,
2013-07-31 03:20:00,56.8,53.6,29.75,SE,135,2.0,6.0,89,0.00,CLR,CLR,0.00,WeatherDisplay:10.37,2013-07-31 02:20:00,
2013-07-31 03:30:00,56.8,53.6,29.74,SE,135,2.0,6.0,89,0.00,CLR,CLR,0.00,WeatherDisplay:10.37,2013-07-31 02:30:00,
2013-07-31 03:40:00,57.0,53.8,29.74,SE,135,2.0,6.0,89,0.00,CLR,CLR,0.00,WeatherDisplay:10.37,2013-07-31 02:40:00,
2013-07-31 03:50:00,57.0,53.8,29.74,SE,139,3.0,6.0,89,0.00,CLR,CLR,0.00,WeatherDisplay:10.37,2013-07-31 02:50:00,
2013-07-31 04:00:00,57.4,53.5,29.74,SE,136,3.0,7.0,87,0.00,CLR,CLR,0.00,WeatherDisplay:10.37,2013-07-31 03:00:00,
2013-07-31 04:10:00,57.6,53.7,29.74,SE,135,2.0,6.0,87,0.00,CLR,CLR,0.00,WeatherDisplay:10.37,2013-07-31 03:10:00,
2013-07-31 04:20:00,57.7,53.9,29.73,SE,130,3.0,6.0,87,0.00,CLR,CLR,0.00,WeatherDisplay:10.37,2013-07-31 03:20:00,
2013-07-31 04:30:00,57.8,54.0,29.73,SE,134,3.0,8.0,87,0.00,CLR,CLR,0.00,WeatherDisplay:10.37,2013-07-31 03:30:00,
2013-07-31 04:40:00,57.9,54.1,29.73,SE,134,3.0,7.0,87,0.00,CLR,CLR,0.00,WeatherDisplay:10.37,2013-07-31 03:40:00,
2013-07-31 04:50:00,57.4,53.2,29.73,SE,129,5.0,7.0,86,0.00,CLR,CLR,0.00,WeatherDisplay:10.37,2013-07-31 03:50:00,
2013-07-31 05:00:00,57.4,53.5,29.73,SE,129,5.0,8.0,87,0.00,CLR,CLR,0.00,WeatherDisplay:10.37,2013-07-31 04:00:00,
2013-07-31 05:10:00,57.2,53.4,29.73,SE,134,3.0,8.0,87,0.00,CLR,CLR,0.00,WeatherDisplay:10.37,2013-07-31 04:10:00,
2013-07-31 05:20:00,57.0,53.8,29.73,SE,132,6.0,8.0,89,0.00,CLR,CLR,0.00,WeatherDisplay:10.37,2013-07-31 04:20:00,
2013-07-31 05:30:00,57.2,53.7,29.73,SSE,158,7.0,12.0,88,0.00,CLR,CLR,0.00,WeatherDisplay:10.37,2013-07-31 04:30:00,
2013-07-31 05:40:00,57.2,53.7,29.73,SE,145,7.0,11.0,88,0.00,CLR,CLR,0.00,WeatherDisplay:10.37,2013-07-31 04:40:00,
2013-07-31 05:50:00,57.2,54.0,29.72,SE,143,8.0,10.0,89,0.00,CLR,CLR,0.00,WeatherDisplay:10.37,2013-07-31 04:50:00,
2013-07-31 06:00:00,57.2,54.0,29.72,SE,137,7.0,11.0,89,0.00,CLR,CLR,0.00,WeatherDisplay:10.37,2013-07-31 05:00:00,
2013-07-31 06:10:00,57.1,54.2,29.72,SE,139,7.0,10.0,90,0.00,CLR,CLR,0.00,WeatherDisplay:10.37,2013-07-31 05:10:00,
2013-07-31 06:20:00,57.0,54.1,29.72,SE,146,7.0,12.0,90,0.00,CLR,CLR,0.00,WeatherDisplay:10.37,2013-07-31 05:20:00,
2013-07-31 06:30:00,56.8,53.9,29.73,SE,129,7.0,10.0,90,0.00,CLR,CLR,0.00,WeatherDisplay:10.37,2013-07-31 05:30:00,
2013-07-31 06:40:00,56.8,53.9,29.72,SSE,161,8.0,11.0,90,0.00,CLR,CLR,0.00,WeatherDisplay:10.37,2013-07-31 05:40:00,
2013-07-31 06:50:00,56.8,53.9,29.72,SSE,151,5.0,12.0,90,0.00,CLR,CLR,0.00,WeatherDisplay:10.37,2013-07-31 05:50:00,
2013-07-31 07:00:00,56.8,53.9,29.72,SE,131,2.0,8.0,90,0.00,CLR,CLR,0.00,WeatherDisplay:10.37,2013-07-31 06:00:00,
2013-07-31 07:10:00,56.8,54.2,29.73,SE,127,3.0,8.0,91,0.00,CLR,CLR,0.00,WeatherDisplay:10.37,2013-07-31 06:10:00,
2013-07-31 07:20:00,56.8,54.2,29.72,SE,132,3.0,7.0,91,0.00,CLR,CLR,0.00,WeatherDisplay:10.37,2013-07-31 06:20:00,
2013-07-31 07:30:00,56.8,54.2,29.71,ESE,116,3.0,6.0,91,0.00,CLR,CLR,0.00,WeatherDisplay:10.37,2013-07-31 06:30:00,
2013-07-31 07:40:00,56.8,54.5,29.71,ESE,111,3.0,7.0,92,0.00,CLR,CLR,0.00,WeatherDisplay:10.37,2013-07-31 06:40:00,
2013-07-31 07:50:00,56.8,54.5,29.71,ESE,110,5.0,8.0,92,0.00,CLR,CLR,0.00,WeatherDisplay:10.37,2013-07-31 06:50:00,
2013-07-31 08:00:00,56.8,54.5,29.71,ESE,116,3.0,6.0,92,0.00,CLR,CLR,0.00,WeatherDisplay:10.37,2013-07-31 07:00:00,
2013-07-31 08:10:00,56.8,54.5,29.71,East,95,3.0,7.0,92,0.00,CLR,CLR,0.00,WeatherDisplay:10.37,2013-07-31 07:10:00,
2013-07-31 08:20:00,57.2,54.6,29.70,East,87,3.0,6.0,91,0.00,CLR,CLR,0.00,WeatherDisplay:10.37,2013-07-31 07:20:00,
2013-07-31 08:30:00,57.2,54.3,29.70,East,95,5.0,8.0,90,0.00,CLR,CLR,0.00,WeatherDisplay:10.37,2013-07-31 07:30:00,
2013-07-31 08:40:00,57.6,54.3,29.70,ESE,105,5.0,8.0,89,0.00,CLR,CLR,0.00,WeatherDisplay:10.37,2013-07-31 07:40:00,
2013-07-31 08:50:00,58.1,54.6,29.69,ESE,103,6.0,10.0,88,0.00,CLR,CLR,0.00,WeatherDisplay:10.37,2013-07-31 07:50:00,
2013-07-31 09:00:00,58.3,54.4,29.69,ESE,108,6.0,13.0,87,0.00,CLR,CLR,0.00,WeatherDisplay:10.37,2013-07-31 08:00:00,
2013-07-31 09:10:00,58.5,54.6,29.69,ESE,115,5.0,13.0,87,0.00,CLR,CLR,0.00,WeatherDisplay:10.37,2013-07-31 08:10:00,
2013-07-31 09:20:00,58.8,55.0,29.69,ESE,110,7.0,11.0,87,0.00,CLR,CLR,0.00,WeatherDisplay:10.37,2013-07-31 08:20:00,
2013-07-31 09:30:00,58.6,54.8,29.68,East,95,12.0,15.0,87,0.00,CLR,CLR,0.00,WeatherDisplay:10.37,2013-07-31 08:30:00,
2013-07-31 09:40:00,58.6,54.8,29.68,East,92,8.0,17.0,87,0.00,CLR,CLR,0.00,WeatherDisplay:10.37,2013-07-31 08:40:00,
2013-07-31 09:50:00,58.6,55.1,29.68,East,94,9.0,15.0,88,0.00,CLR,CLR,0.00,WeatherDisplay:10.37,2013-07-31 08:50:00,
2013-07-31 10:00:00,58.4,54.5,29.68,ESE,107,9.0,18.0,87,0.00,CLR,CLR,0.00,WeatherDisplay:10.37,2013-07-31 09:00:00,
2013-07-31 10:10:00,58.3,54.7,29.67,ESE,104,9.0,17.0,88,0.00,CLR,CLR,0.00,WeatherDisplay:10.37,2013-07-31 09:10:00,
2013-07-31 10:20:00,58.5,55.2,29.67,ESE,108,12.0,20.0,89,0.00,CLR,CLR,0.00,WeatherDisplay:10.37,2013-07-31 09:20:00,
2013-07-31 10:30:00,58.3,55.1,29.66,ESE,102,14.0,20.0,89,0.00,CLR,CLR,0.00,WeatherDisplay:10.37,2013-07-31 09:30:00,
2013-07-31 10:40:00,58.1,55.2,29.66,ESE,106,10.0,20.0,90,0.00,CLR,CLR,0.00,WeatherDisplay:10.37,2013-07-31 09:40:00,
2013-07-31 10:50:00,57.9,55.0,29.65,East,90,10.0,20.0,90,0.00,CLR,CLR,0.00,WeatherDisplay:10.37,2013-07-31 09:50:00,
2013-07-31 11:00:00,57.7,55.1,29.65,East,95,8.0,18.0,91,0.01,RA,RA,0.01,WeatherDisplay:10.37,2013-07-31 10:00:00,
2013-07-31 11:10:00,57.6,55.3,29.65,East,99,13.0,20.0,92,0.01,RA,RA,0.02,WeatherDisplay:10.37,2013-07-31 10:10:00,
2013-07-31 11:20:00,57.6,55.3,29.64,East,98,7.0,20.0,92,0.02,RA,RA,0.05,WeatherDisplay:10.37,2013-07-31 10:20:00,
2013-07-31 11:30:00,57.6,55.3,29.64,East,94,7.0,18.0,92,0.02,RA,RA,0.07,WeatherDisplay:10.37,2013-07-31 10:30:00,
2013-07-31 11:40:00,57.6,55.6,29.64,ENE,65,6.0,15.0,93,0.02,RA,RA,0.09,WeatherDisplay:10.37,2013-07-31 10:40:00,
2013-07-31 11:50:00,57.6,55.6,29.64,East,93,7.0,15.0,93,0.02,RA,RA,0.12,WeatherDisplay:10.37,2013-07-31 10:50:00,
2013-07-31 12:00:00,57.8,55.8,29.63,ENE,57,7.0,15.0,93,0.01,RA,RA,0.13,WeatherDisplay:10.37,2013-07-31 11:00:00,
2013-07-31 12:10:00,58.1,56.4,29.63,East,91,8.0,17.0,94,0.01,RA,RA,0.14,WeatherDisplay:10.37,2013-07-31 11:10:00,
2013-07-31 12:20:00,58.6,56.9,29.62,ENE,74,7.0,15.0,94,0.01,RA,RA,0.15,WeatherDisplay:10.37,2013-07-31 11:20:00,
2013-07-31 12:30:00,58.6,56.9,29.62,ENE,70,8.0,20.0,94,0.01,RA,RA,0.17,WeatherDisplay:10.37,2013-07-31 11:30:00,
2013-07-31 12:40:00,58.8,57.1,29.61,ENE,75,6.0,17.0,94,0.00,CLR,CLR,0.17,WeatherDisplay:10.37,2013-07-31 11:40:00,
2013-07-31 12:50:00,58.6,56.9,29.61,ENE,78,7.0,17.0,94,0.01,RA,RA,0.18,WeatherDisplay:10.37,2013-07-31 11:50:00,
2013-07-31 13:00:00,58.8,57.1,29.60,East,79,9.0,15.0,94,0.01,RA,RA,0.19,WeatherDisplay:10.37,2013-07-31 12:00:00,
2013-07-31 13:10:00,58.8,57.1,29.59,East,100,10.0,17.0,94,0.02,RA,RA,0.21,WeatherDisplay:10.37,2013-07-31 12:10:00,
2013-07-31 13:20:00,58.9,57.2,29.58,SE,130,14.0,20.0,94,0.02,RA,RA,0.24,WeatherDisplay:10.37,2013-07-31 12:20:00,
2013-07-31 13:30:00,59.0,57.0,29.59,SE,134,10.0,21.0,93,0.01,RA,RA,0.25,WeatherDisplay:10.37,2013-07-31 12:30:00,
2013-07-31 13:40:00,59.5,57.5,29.59,East,89,10.0,20.0,93,0.01,RA,RA,0.26,WeatherDisplay:10.37,2013-07-31 12:40:00,
2013-07-31 13:50:00,59.5,57.5,29.57,NNE,13,10.0,15.0,93,0.00,CLR,CLR,0.26,WeatherDisplay:10.37,2013-07-31 12:50:00,
2013-07-31 14:00:00,59.5,57.5,29.57,North,0,10.0,15.0,93,0.00,CLR,CLR,0.26,WeatherDisplay:10.37,2013-07-31 13:00:00,
2013-07-31 14:10:00,59.8,57.8,29.56,North,11,9.0,15.0,93,0.02,RA,RA,0.28,WeatherDisplay:10.37,2013-07-31 13:10:00,
2013-07-31 14:20:00,59.9,57.9,29.55,ESE,114,8.0,16.0,93,0.01,RA,RA,0.29,WeatherDisplay:10.37,2013-07-31 13:20:00,
2013-07-31 14:30:00,60.3,58.2,29.55,East,82,10.0,20.0,93,0.00,CLR,CLR,0.29,WeatherDisplay:10.37,2013-07-31 13:30:00,
2013-07-31 14:40:00,60.6,58.9,29.54,East,94,10.0,20.0,94,0.00,CLR,CLR,0.29,WeatherDisplay:10.37,2013-07-31 13:40:00,
2013-07-31 14:50:00,61.0,58.9,29.55,ENE,71,8.0,20.0,93,0.00,CLR,CLR,0.29,WeatherDisplay:10.37,2013-07-31 13:50:00,
2013-07-31 15:00:00,61.0,58.9,29.54,East,94,6.0,14.0,93,0.00,CLR,CLR,0.29,WeatherDisplay:10.37,2013-07-31 14:00:00,
2013-07-31 15:10:00,61.2,59.1,29.54,ESE,109,5.0,12.0,93,0.00,CLR,CLR,0.29,WeatherDisplay:10.37,2013-07-31 14:10:00,
2013-07-31 15:20:00,61.2,59.1,29.53,East,93,5.0,12.0,93,0.01,RA,RA,0.31,WeatherDisplay:10.37,2013-07-31 14:20:00,
2013-07-31 15:30:00,61.7,59.7,29.53,ESE,102,6.0,9.0,93,0.00,CLR,CLR,0.31,WeatherDisplay:10.37,2013-07-31 14:30:00,
2013-07-31 15:40:00,61.9,59.8,29.53,ESE,102,5.0,8.0,93,0.00,CLR,CLR,0.31,WeatherDisplay:10.37,2013-07-31 14:40:00,
2013-07-31 15:50:00,62.5,60.5,29.52,ESE,102,3.0,13.0,93,0.00,CLR,CLR,0.31,WeatherDisplay:10.37,2013-07-31 14:50:00,
2013-07-31 16:00:00,63.1,61.1,29.52,ESE,110,3.0,8.0,93,0.00,CLR,CLR,0.31,WeatherDisplay:10.37,2013-07-31 15:00:00,
2013-07-31 16:10:00,64.4,62.9,29.52,SE,132,3.0,8.0,95,0.00,CLR,CLR,0.31,WeatherDisplay:10.37,2013-07-31 15:10:00,
2013-07-31 16:20:00,66.6,65.1,29.51,South,174,8.0,13.0,95,0.00,CLR,CLR,0.31,WeatherDisplay:10.37,2013-07-31 15:20:00,
2013-07-31 16:30:00,67.3,65.2,29.51,South,182,8.0,14.0,93,0.00,CLR,CLR,0.31,WeatherDisplay:10.37,2013-07-31 15:30:00,
2013-07-31 16:40:00,67.5,64.7,29.51,South,182,12.0,15.0,91,0.00,CLR,CLR,0.31,WeatherDisplay:10.37,2013-07-31 15:40:00,
2013-07-31 16:50:00,67.5,64.4,29.51,SW,222,16.0,21.0,90,0.00,CLR,CLR,0.31,WeatherDisplay:10.37,2013-07-31 15:50:00,
2013-07-31 17:00:00,68.5,64.2,29.50,SSW,211,20.0,31.0,86,0.00,CLR,CLR,0.31,WeatherDisplay:10.37,2013-07-31 16:00:00,
2013-07-31 17:10:00,68.1,63.8,29.51,SW,222,16.0,29.0,86,0.00,CLR,CLR,0.31,WeatherDisplay:10.37,2013-07-31 16:10:00,
2013-07-31 17:20:00,68.3,63.9,29.51,SW,220,22.0,29.0,86,0.00,CLR,CLR,0.31,WeatherDisplay:10.37,2013-07-31 16:20:00,
2013-07-31 17:30:00,68.2,63.5,29.51,SW,223,20.0,29.0,85,0.00,CLR,CLR,0.31,WeatherDisplay:10.37,2013-07-31 16:30:00,
2013-07-31 17:40:00,68.2,62.8,29.51,SW,227,24.0,36.0,83,0.01,RA,RA,0.32,WeatherDisplay:10.37,2013-07-31 16:40:00,
2013-07-31 17:50:00,68.5,63.2,29.51,SW,229,21.0,31.0,83,0.00,CLR,CLR,0.32,WeatherDisplay:10.37,2013-07-31 16:50:00,
2013-07-31 18:00:00,69.6,62.8,29.51,SW,222,21.0,29.0,79,0.00,CLR,CLR,0.32,WeatherDisplay:10.37,2013-07-31 17:00:00,
2013-07-31 18:10:00,68.7,61.9,29.51,SW,225,20.0,31.0,79,0.00,CLR,CLR,0.32,WeatherDisplay:10.37,2013-07-31 17:10:00,
2013-07-31 18:20:00,68.5,62.1,29.51,SW,216,21.0,30.0,80,0.00,CLR,CLR,0.32,WeatherDisplay:10.37,2013-07-31 17:20:00,
2013-07-31 18:30:00,68.4,62.3,29.51,SW,228,17.0,26.0,81,0.00,CLR,CLR,0.32,WeatherDisplay:10.37,2013-07-31 17:30:00,
2013-07-31 18:40:00,68.2,62.5,29.51,SW,220,16.0,23.0,82,0.00,CLR,CLR,0.32,WeatherDisplay:10.37,2013-07-31 17:40:00,
2013-07-31 18:50:00,68.4,62.3,29.51,SW,223,24.0,35.0,81,0.00,CLR,CLR,0.32,WeatherDisplay:10.37,2013-07-31 17:50:00,
2013-07-31 19:00:00,68.2,62.5,29.51,SW,222,18.0,35.0,82,0.00,CLR,CLR,0.32,WeatherDisplay:10.37,2013-07-31 18:00:00,
2013-07-31 19:10:00,68.2,62.1,29.51,SW,217,21.0,28.0,81,0.00,CLR,CLR,0.32,WeatherDisplay:10.37,2013-07-31 18:10:00,
2013-07-31 19:20:00,68.2,61.8,29.51,SW,232,23.0,31.0,80,0.00,CLR,CLR,0.32,WeatherDisplay:10.37,2013-07-31 18:20:00,
2013-07-31 19:30:00,68.0,61.9,29.51,WSW,237,20.0,30.0,81,0.00,CLR,CLR,0.32,WeatherDisplay:10.37,2013-07-31 18:30:00,
2013-07-31 19:40:00,67.8,62.1,29.51,SW,225,18.0,30.0,82,0.00,CLR,CLR,0.32,WeatherDisplay:10.37,2013-07-31 18:40:00,
2013-07-31 19:50:00,67.8,61.8,29.51,SW,230,20.0,26.0,81,0.00,CLR,CLR,0.32,WeatherDisplay:10.37,2013-07-31 18:50:00,
2013-07-31 20:00:00,67.6,61.9,29.51,SW,222,16.0,25.0,82,0.00,CLR,CLR,0.32,WeatherDisplay:10.37,2013-07-31 19:00:00,
2013-07-31 20:10:00,67.5,62.1,29.51,SW,223,12.0,22.0,83,0.00,CLR,CLR,0.32,WeatherDisplay:10.37,2013-07-31 19:10:00,
2013-07-31 20:20:00,67.5,62.5,29.51,SSW,209,16.0,18.0,84,0.00,CLR,CLR,0.32,WeatherDisplay:10.37,2013-07-31 19:20:00,
2013-07-31 20:30:00,67.6,61.9,29.51,SSW,200,17.0,22.0,82,0.00,CLR,CLR,0.32,WeatherDisplay:10.37,2013-07-31 19:30:00,
2013-07-31 20:40:00,67.3,61.9,29.51,South,191,15.0,21.0,83,0.00,CLR,CLR,0.32,WeatherDisplay:10.37,2013-07-31 19:40:00,
2013-07-31 20:50:00,67.3,62.3,29.51,South,184,16.0,21.0,84,0.00,CLR,CLR,0.32,WeatherDisplay:10.37,2013-07-31 19:50:00,
2013-07-31 21:00:00,67.1,62.1,29.52,SSW,200,15.0,21.0,84,0.00,CLR,CLR,0.32,WeatherDisplay:10.37,2013-07-31 20:00:00,
2013-07-31 21:10:00,67.1,62.1,29.51,South,188,14.0,21.0,84,0.00,CLR,CLR,0.32,WeatherDisplay:10.37,2013-07-31 20:10:00,
2013-07-31 21:20:00,66.9,61.9,29.52,SSW,194,13.0,17.0,84,0.00,CLR,CLR,0.32,WeatherDisplay:10.37,2013-07-31 20:20:00,
2013-07-31 21:30:00,67.1,62.1,29.51,South,179,15.0,23.0,84,0.00,CLR,CLR,0.32,WeatherDisplay:10.37,2013-07-31 20:30:00,
2013-07-31 21:40:00,66.9,61.9,29.51,South,189,15.0,21.0,84,0.00,CLR,CLR,0.32,WeatherDisplay:10.37,2013-07-31 20:40:00,
2013-07-31 21:50:00,66.0,62.3,29.51,South,170,13.0,21.0,88,0.00,CLR,CLR,0.32,WeatherDisplay:10.37,2013-07-31 20:50:00,
2013-07-31 22:00:00,65.5,62.5,29.51,South,177,9.0,15.0,90,0.00,CLR,CLR,0.32,WeatherDisplay:10.37,2013-07-31 21:00:00,
2013-07-31 22:10:00,65.3,62.6,29.51,South,178,13.0,16.0,91,0.00,CLR,CLR,0.32,WeatherDisplay:10.37,2013-07-31 21:10:00,
2013-07-31 22:20:00,65.1,62.4,29.51,South,182,12.0,15.0,91,0.00,CLR,CLR,0.32,WeatherDisplay:10.37,2013-07-31 21:20:00,
2013-07-31 22:30:00,65.1,62.7,29.51,South,180,12.0,15.0,92,0.00,CLR,CLR,0.32,WeatherDisplay:10.37,2013-07-31 21:30:00,
2013-07-31 22:40:00,64.9,62.6,29.51,South,177,12.0,17.0,92,0.00,CLR,CLR,0.32,WeatherDisplay:10.37,2013-07-31 21:40:00,
2013-07-31 22:50:00,64.9,62.9,29.51,South,172,12.0,20.0,93,0.00,CLR,CLR,0.32,WeatherDisplay:10.37,2013-07-31 21:50:00,
2013-07-31 23:00:00,65.1,62.7,29.51,South,177,14.0,17.0,92,0.00,CLR,CLR,0.32,WeatherDisplay:10.37,2013-07-31 22:00:00,
2013-07-31 23:10:00,65.3,62.6,29.50,South,172,12.0,17.0,91,0.00,CLR,CLR,0.32,WeatherDisplay:10.37,2013-07-31 22:10:00,
2013-07-31 23:20:00,65.3,62.3,29.50,South,175,12.0,17.0,90,0.00,CLR,CLR,0.32,WeatherDisplay:10.37,2013-07-31 22:20:00,
2013-07-31 23:30:00,65.1,62.1,29.50,South,174,12.0,17.0,90,0.00,CLR,CLR,0.32,WeatherDisplay:10.37,2013-07-31 22:30:00,
2013-07-31 23:40:00,65.1,62.1,29.50,South,178,14.0,17.0,90,0.00,CLR,CLR,0.32,WeatherDisplay:10.37,2013-07-31 22:40:00,
2013-07-31 23:50:00,65.3,62.3,29.50,South,170,16.0,20.0,90,0.00,CLR,CLR,0.32,WeatherDisplay:10.37,2013-07-31 22:50:00,